createdAt,value
2019-02-18T00:02:14.383Z,4.60
2019-02-18T00:04:43.064Z,4.50
2019-02-18T00:07:14.440Z,4.50
2019-02-18T00:09:41.945Z,4.30
2019-02-18T00:12:10.399Z,4.30
2019-02-18T00:14:38.968Z,4.30
2019-02-18T00:17:07.356Z,4.30
2019-02-18T00:19:35.849Z,4.30
2019-02-18T00:22:04.619Z,4.30
2019-02-18T00:24:33.112Z,4.30
2019-02-18T00:27:03.332Z,4.30
2019-02-18T00:29:32.026Z,4.30
2019-02-18T00:32:01.501Z,4.30
2019-02-18T00:34:30.787Z,4.20
2019-02-18T00:36:59.389Z,4.20
2019-02-18T00:39:27.771Z,4.30
2019-02-18T00:41:56.278Z,4.30
2019-02-18T00:44:24.771Z,4.30
2019-02-18T00:46:53.263Z,4.30
2019-02-18T00:49:21.628Z,4.30
2019-02-18T00:51:51.219Z,4.30
2019-02-18T00:54:19.698Z,4.20
2019-02-18T00:56:48.288Z,4.10
2019-02-18T00:59:26.179Z,3.90
2019-02-18T01:01:54.736Z,3.90
2019-02-18T01:04:23.149Z,3.90
2019-02-18T01:06:51.636Z,3.90
2019-02-18T01:09:20.116Z,3.80
2019-02-18T01:11:48.563Z,3.90
2019-02-18T01:14:18.238Z,3.90
2019-02-18T01:16:48.441Z,3.90
2019-02-18T01:19:16.910Z,3.80
2019-02-18T01:21:45.380Z,3.80
2019-02-18T01:24:13.868Z,3.80
2019-02-18T01:26:42.247Z,3.70
2019-02-18T01:29:10.668Z,3.80
2019-02-18T01:31:39.057Z,3.80
2019-02-18T01:34:07.531Z,3.80
2019-02-18T01:36:36.002Z,3.80
2019-02-18T01:39:05.511Z,3.70
2019-02-18T01:41:34.892Z,3.70
2019-02-18T01:44:03.672Z,3.70
2019-02-18T01:46:33.859Z,3.60
2019-02-18T01:49:02.261Z,3.50
2019-02-18T01:51:30.843Z,3.50
2019-02-18T01:53:59.252Z,3.60
2019-02-18T01:56:27.628Z,3.60
2019-02-18T01:58:57.826Z,3.50
2019-02-18T02:01:28.067Z,3.50
2019-02-18T02:03:56.526Z,3.40
2019-02-18T02:06:25.221Z,3.40
2019-02-18T02:08:53.702Z,3.40
2019-02-18T02:11:22.187Z,3.40
2019-02-18T02:13:50.682Z,3.40
2019-02-18T02:16:19.061Z,3.50
2019-02-18T02:18:47.457Z,3.40
2019-02-18T02:21:16.734Z,3.40
2019-02-18T02:23:45.839Z,3.50
2019-02-18T02:26:14.328Z,3.60
2019-02-18T02:28:42.706Z,3.50
2019-02-18T02:31:11.261Z,3.50
2019-02-18T02:33:39.743Z,3.40
2019-02-18T02:36:08.120Z,3.40
2019-02-18T02:38:36.604Z,3.40
2019-02-18T02:41:05.220Z,3.50
2019-02-18T02:43:35.319Z,3.40
2019-02-18T02:46:03.695Z,3.50
2019-02-18T02:48:32.903Z,3.40
2019-02-18T02:51:01.531Z,3.40
2019-02-18T02:53:30.032Z,3.40
2019-02-18T02:55:58.515Z,3.40
2019-02-18T02:58:26.943Z,3.50
2019-02-18T03:00:55.527Z,3.50
2019-02-18T03:03:24.008Z,3.40
2019-02-18T03:05:52.595Z,3.50
2019-02-18T03:08:22.072Z,3.50
2019-02-18T03:10:50.625Z,3.40
2019-02-18T03:13:19.241Z,3.40
2019-02-18T03:15:47.728Z,3.40
2019-02-18T03:18:16.302Z,3.30
2019-02-18T03:20:44.737Z,3.30
2019-02-18T03:23:13.714Z,3.20
2019-02-18T03:25:43.990Z,3.20
2019-02-18T03:29:27.451Z,3.30
2019-02-18T03:31:57.761Z,3.30
2019-02-18T03:34:39.103Z,3.40
2019-02-18T03:37:08.203Z,3.30
2019-02-18T03:39:36.577Z,3.20
2019-02-18T03:42:05.309Z,3.30
2019-02-18T03:44:34.194Z,3.20
2019-02-18T03:47:04.370Z,3.20
2019-02-18T03:49:32.759Z,3.10
2019-02-18T03:52:01.460Z,3.10
2019-02-18T03:54:29.962Z,3.20
2019-02-18T03:56:58.342Z,3.10
2019-02-18T03:59:28.567Z,3.10
2019-02-18T04:01:58.933Z,3.20
2019-02-18T04:04:27.307Z,3.20
2019-02-18T04:06:56.310Z,3.10
2019-02-18T04:09:24.685Z,3.10
2019-02-18T04:11:54.929Z,3.00
2019-02-18T04:14:23.413Z,2.90
2019-02-18T04:16:51.814Z,2.80
2019-02-18T04:19:20.226Z,2.90
2019-02-18T04:21:48.751Z,2.90
2019-02-18T04:24:18.931Z,2.90
2019-02-18T04:26:47.416Z,2.90
2019-02-18T04:29:15.797Z,2.90
2019-02-18T04:31:44.349Z,2.80
2019-02-18T04:34:12.727Z,2.80
2019-02-18T04:36:41.311Z,2.80
2019-02-18T04:39:11.112Z,2.80
2019-02-18T04:41:39.572Z,2.80
2019-02-18T04:44:08.081Z,2.80
2019-02-18T04:46:36.448Z,2.90
2019-02-18T04:49:04.816Z,2.90
2019-02-18T04:51:33.282Z,2.80
2019-02-18T04:54:03.479Z,2.70
2019-02-18T04:56:32.100Z,2.80
2019-02-18T04:59:00.470Z,2.70
2019-02-18T05:01:29.057Z,2.70
2019-02-18T05:03:57.461Z,2.70
2019-02-18T05:06:25.853Z,2.80
2019-02-18T05:09:04.815Z,2.80
2019-02-18T05:11:24.888Z,2.70
2019-02-18T05:13:55.137Z,2.70
2019-02-18T05:16:23.610Z,2.70
2019-02-18T05:18:53.794Z,2.70
2019-02-18T05:21:22.229Z,2.60
2019-02-18T05:23:50.721Z,2.60
2019-02-18T05:26:19.108Z,2.60
2019-02-18T05:28:49.284Z,2.70
2019-02-18T05:31:17.841Z,2.70
2019-02-18T05:33:48.027Z,2.80
2019-02-18T05:36:16.394Z,2.80
2019-02-18T05:38:45.289Z,2.60
2019-02-18T05:41:14.220Z,2.50
2019-02-18T05:43:44.450Z,2.30
2019-02-18T05:46:12.881Z,2.30
2019-02-18T05:48:41.415Z,2.30
2019-02-18T05:51:09.932Z,2.40
2019-02-18T05:53:38.324Z,2.30
2019-02-18T05:56:06.811Z,2.40
2019-02-18T05:58:35.280Z,2.50
2019-02-18T06:01:03.770Z,2.50
2019-02-18T06:03:32.165Z,2.50
2019-02-18T06:06:00.538Z,2.40
2019-02-18T06:08:28.951Z,2.50
2019-02-18T06:10:57.340Z,2.50
2019-02-18T06:13:26.026Z,2.50
2019-02-18T06:15:56.220Z,2.60
2019-02-18T06:18:24.601Z,2.40
2019-02-18T06:20:53.184Z,2.50
2019-02-18T06:23:21.571Z,2.60
2019-02-18T06:25:49.945Z,2.50
2019-02-18T06:28:18.329Z,2.50
2019-02-18T06:30:48.072Z,2.60
2019-02-18T06:33:17.175Z,2.60
2019-02-18T06:35:47.264Z,2.70
2019-02-18T06:38:15.658Z,2.90
2019-02-18T06:40:44.262Z,2.80
2019-02-18T06:43:12.770Z,2.80
2019-02-18T06:46:00.447Z,2.70
2019-02-18T06:48:31.583Z,2.70
2019-02-18T06:51:00.134Z,2.70
2019-02-18T06:53:30.342Z,2.70
2019-02-18T06:55:58.826Z,2.70
2019-02-18T06:58:55.674Z,2.80
2019-02-18T07:01:48.054Z,2.80
2019-02-18T07:04:36.036Z,2.90
2019-02-18T07:07:30.221Z,3.00
2019-02-18T07:10:08.299Z,3.10
2019-02-18T07:12:43.115Z,3.20
2019-02-18T07:15:11.655Z,3.10
2019-02-18T07:17:40.022Z,3.20
2019-02-18T07:20:08.527Z,3.30
2019-02-18T07:22:37.014Z,3.40
2019-02-18T07:25:07.394Z,3.50
2019-02-18T07:27:35.779Z,3.50
2019-02-18T07:30:07.343Z,3.50
2019-02-18T07:32:37.538Z,3.60
2019-02-18T07:35:06.124Z,3.70
2019-02-18T07:37:34.612Z,3.70
2019-02-18T07:40:03.957Z,3.80
2019-02-18T07:42:32.340Z,3.80
2019-02-18T07:45:00.866Z,3.90
2019-02-18T07:47:31.037Z,3.90
2019-02-18T07:49:59.517Z,4.00
2019-02-18T07:52:27.910Z,3.70
2019-02-18T07:54:56.291Z,3.60
2019-02-18T07:57:24.706Z,3.50
2019-02-18T07:59:53.098Z,3.80
2019-02-18T08:02:21.587Z,4.00
2019-02-18T08:04:50.077Z,4.20
2019-02-18T08:07:18.567Z,4.50
2019-02-18T08:09:48.784Z,4.50
2019-02-18T08:12:17.631Z,4.20
2019-02-18T08:14:47.817Z,4.20
2019-02-18T08:17:16.416Z,4.40
2019-02-18T08:19:44.896Z,4.60
2019-02-18T08:22:13.570Z,4.60
2019-02-18T08:24:42.278Z,4.80
2019-02-18T08:27:10.673Z,4.90
2019-02-18T08:29:40.194Z,5.10
2019-02-18T08:32:10.954Z,5.20
2019-02-18T08:34:39.840Z,5.30
2019-02-18T08:37:08.646Z,5.30
2019-02-18T08:39:37.282Z,5.40
2019-02-18T08:42:07.514Z,5.50
2019-02-18T08:44:36.119Z,5.40
2019-02-18T08:47:05.226Z,5.40
2019-02-18T08:49:33.694Z,5.30
2019-02-18T08:52:02.276Z,5.50
2019-02-18T08:54:31.075Z,5.50
2019-02-18T08:57:01.596Z,5.70
2019-02-18T08:59:30.256Z,5.70
2019-02-18T09:01:58.833Z,5.70
2019-02-18T09:04:28.132Z,5.80
2019-02-18T09:06:56.826Z,5.90
2019-02-18T09:09:25.418Z,6.00
2019-02-18T09:11:53.953Z,6.00
2019-02-18T09:14:22.352Z,6.10
2019-02-18T09:16:51.053Z,6.20
2019-02-18T09:19:21.275Z,6.30
2019-02-18T09:21:54.607Z,6.30
2019-02-18T09:24:28.070Z,6.40
2019-02-18T09:26:56.445Z,6.50
2019-02-18T09:29:24.891Z,6.60
2019-02-18T09:31:53.457Z,6.60
2019-02-18T09:34:21.852Z,6.70
2019-02-18T09:36:50.495Z,6.80
2019-02-18T09:39:30.613Z,6.90
2019-02-18T09:41:52.716Z,7.00
2019-02-18T09:44:21.305Z,7.10
2019-02-18T09:46:49.899Z,7.30
2019-02-18T09:49:18.997Z,7.30
2019-02-18T09:51:49.266Z,7.40
2019-02-18T09:54:17.755Z,7.50
2019-02-18T09:56:46.138Z,7.60
2019-02-18T09:59:14.904Z,7.70
2019-02-18T10:01:43.474Z,7.90
2019-02-18T10:04:11.857Z,8.00
2019-02-18T10:06:40.343Z,8.20
2019-02-18T10:09:08.721Z,8.20
2019-02-18T10:11:37.340Z,8.40
2019-02-18T10:14:05.847Z,8.50
2019-02-18T10:16:34.223Z,8.70
2019-02-18T10:19:02.704Z,8.80
2019-02-18T10:21:31.153Z,9.00
2019-02-18T10:23:59.959Z,9.20
2019-02-18T10:26:28.846Z,9.40
2019-02-18T10:28:57.250Z,9.60
2019-02-18T10:31:25.765Z,10.10
2019-02-18T10:33:54.240Z,10.30
2019-02-18T10:36:22.624Z,10.60
2019-02-18T10:38:51.081Z,10.80
2019-02-18T10:41:19.510Z,10.90
2019-02-18T10:43:48.593Z,11.10
2019-02-18T10:46:17.130Z,11.20
2019-02-18T10:48:47.684Z,11.50
2019-02-18T10:51:16.873Z,11.90
2019-02-18T10:53:45.532Z,12.10
2019-02-18T10:56:14.426Z,12.20
2019-02-18T10:58:42.852Z,12.40
2019-02-18T11:01:11.808Z,12.80
2019-02-18T11:03:40.377Z,13.70
2019-02-18T11:06:09.414Z,14.40
2019-02-18T11:08:37.862Z,14.60
2019-02-18T11:11:16.706Z,14.40
2019-02-18T11:13:38.617Z,14.20
2019-02-18T11:16:08.843Z,14.40
2019-02-18T11:18:37.506Z,14.80
2019-02-18T11:21:06.031Z,14.90
2019-02-18T11:23:34.749Z,15.20
2019-02-18T11:26:05.062Z,15.40
2019-02-18T11:28:33.677Z,15.30
2019-02-18T11:31:03.112Z,15.30
2019-02-18T11:33:32.085Z,15.80
2019-02-18T11:36:01.853Z,16.00
2019-02-18T11:38:30.486Z,16.40
2019-02-18T11:40:59.046Z,16.50
2019-02-18T11:43:27.448Z,16.70
2019-02-18T11:45:57.121Z,16.70
2019-02-18T11:48:25.921Z,16.40
2019-02-18T11:50:55.588Z,16.50
2019-02-18T11:53:24.541Z,16.70
2019-02-18T11:55:53.365Z,16.90
2019-02-18T11:58:21.890Z,17.00
2019-02-18T12:00:50.396Z,17.00
2019-02-18T12:03:18.888Z,17.10
2019-02-18T12:05:47.862Z,17.20
2019-02-18T12:08:16.355Z,17.50
2019-02-18T12:10:46.818Z,17.70
2019-02-18T12:13:15.300Z,17.70
2019-02-18T12:15:45.592Z,17.60
2019-02-18T12:18:14.255Z,17.60
2019-02-18T12:20:43.101Z,17.70
2019-02-18T12:23:11.627Z,17.80
2019-02-18T12:25:40.129Z,18.20
2019-02-18T12:28:08.518Z,18.20
2019-02-18T12:30:39.022Z,18.20
2019-02-18T12:33:07.615Z,18.20
2019-02-18T12:35:37.187Z,18.60
2019-02-18T12:38:07.164Z,18.90
2019-02-18T12:40:35.585Z,18.80
2019-02-18T12:43:04.167Z,18.70
2019-02-18T12:45:32.770Z,18.70
2019-02-18T12:48:01.257Z,18.40
2019-02-18T12:50:29.888Z,18.20
2019-02-18T12:52:58.980Z,18.20
2019-02-18T12:55:28.155Z,18.70
2019-02-18T12:57:58.364Z,18.70
2019-02-18T13:00:31.861Z,18.60
2019-02-18T13:03:01.223Z,18.60
2019-02-18T13:05:29.686Z,18.60
2019-02-18T13:07:58.768Z,18.70
2019-02-18T13:10:34.714Z,18.70
2019-02-18T13:12:59.868Z,18.60
2019-02-18T13:15:28.513Z,18.60
2019-02-18T13:17:57.346Z,18.70
2019-02-18T13:20:25.997Z,18.60
2019-02-18T13:22:56.519Z,18.60
2019-02-18T13:25:26.756Z,18.30
2019-02-18T13:27:55.927Z,18.40
2019-02-18T13:30:25.268Z,18.90
2019-02-18T13:32:54.043Z,18.80
2019-02-18T13:35:22.987Z,18.90
2019-02-18T13:37:51.606Z,19.30
2019-02-18T13:40:20.168Z,19.30
2019-02-18T13:42:48.877Z,19.10
2019-02-18T13:45:19.144Z,19.30
2019-02-18T13:47:47.643Z,19.40
2019-02-18T13:50:16.677Z,19.10
2019-02-18T13:52:45.410Z,19.00
2019-02-18T13:55:14.352Z,18.70
2019-02-18T13:57:43.460Z,18.50
2019-02-18T14:00:19.309Z,18.40
2019-02-18T14:02:50.253Z,18.20
2019-02-18T14:05:19.581Z,18.00
2019-02-18T14:07:48.263Z,17.90
2019-02-18T14:10:18.009Z,17.90
2019-02-18T14:12:46.903Z,17.80
2019-02-18T14:15:16.417Z,17.60
2019-02-18T14:17:46.759Z,17.40
2019-02-18T14:20:16.290Z,17.30
2019-02-18T14:22:45.235Z,17.00
2019-02-18T14:25:15.688Z,17.00
2019-02-18T14:27:45.395Z,16.90
2019-02-18T14:30:15.632Z,16.70
2019-02-18T14:32:44.188Z,16.70
2019-02-18T14:35:12.830Z,16.70
2019-02-18T14:37:41.273Z,16.60
2019-02-18T14:40:13.327Z,16.50
2019-02-18T14:42:42.077Z,16.50
2019-02-18T14:45:11.813Z,16.40
2019-02-18T14:47:41.623Z,16.30
2019-02-18T14:50:11.155Z,16.20
2019-02-18T14:52:40.143Z,16.20
2019-02-18T14:55:08.923Z,16.10
2019-02-18T14:57:37.714Z,16.00
2019-02-18T15:00:30.253Z,15.80
2019-02-18T15:02:59.059Z,15.80
2019-02-18T15:05:27.858Z,15.60
2019-02-18T15:07:56.527Z,15.50
2019-02-18T15:10:25.675Z,15.50
2019-02-18T15:12:54.624Z,15.40
2019-02-18T15:15:24.469Z,15.40
2019-02-18T15:17:52.924Z,15.20
2019-02-18T15:20:24.388Z,15.10
2019-02-18T15:22:53.374Z,15.10
2019-02-18T15:25:22.288Z,15.00
2019-02-18T15:27:51.715Z,14.90
2019-02-18T15:30:21.224Z,15.00
2019-02-18T15:32:50.140Z,14.90
2019-02-18T15:35:19.319Z,14.80
2019-02-18T15:37:48.080Z,14.80
2019-02-18T15:40:18.388Z,14.80
2019-02-18T15:42:47.227Z,14.70
2019-02-18T15:45:16.276Z,14.70
2019-02-18T15:47:45.064Z,14.70
2019-02-18T15:50:14.333Z,14.60
2019-02-18T15:52:43.272Z,14.60
2019-02-18T15:55:12.091Z,14.50
2019-02-18T15:57:40.571Z,14.40
2019-02-18T16:00:28.703Z,14.20
2019-02-18T16:02:57.209Z,14.10
2019-02-18T16:05:25.711Z,14.00
2019-02-18T16:07:54.664Z,13.90
2019-02-18T16:10:23.582Z,13.80
2019-02-18T16:12:52.488Z,13.70
2019-02-18T16:15:20.992Z,13.50
2019-02-18T16:17:49.483Z,13.30
2019-02-18T16:20:18.064Z,13.20
2019-02-18T16:22:46.554Z,12.90
2019-02-18T16:25:17.873Z,12.70
2019-02-18T16:27:46.968Z,12.50
2019-02-18T16:30:15.597Z,12.40
2019-02-18T16:32:44.484Z,12.20
2019-02-18T16:35:13.469Z,12.10
2019-02-18T16:37:42.413Z,11.90
2019-02-18T16:40:13.675Z,11.80
2019-02-18T16:42:43.885Z,11.60
2019-02-18T16:45:13.039Z,11.30
2019-02-18T16:47:43.220Z,11.20
2019-02-18T16:50:12.659Z,11.10
2019-02-18T16:52:44.148Z,10.90
2019-02-18T16:55:12.888Z,10.80
2019-02-18T16:57:41.300Z,10.70
2019-02-18T17:00:27.948Z,10.60
2019-02-18T17:02:57.061Z,10.50
2019-02-18T17:05:25.453Z,10.40
2019-02-18T17:07:53.960Z,10.30
2019-02-18T17:10:23.656Z,10.30
2019-02-18T17:12:53.357Z,10.20
2019-02-18T17:15:21.736Z,10.10
2019-02-18T17:17:50.149Z,10.10
2019-02-18T17:20:18.736Z,10.00
2019-02-18T17:22:47.259Z,9.90
2019-02-18T17:25:16.735Z,9.80
2019-02-18T17:27:45.561Z,9.80
2019-02-18T17:30:14.150Z,9.70
2019-02-18T17:32:42.737Z,9.60
2019-02-18T17:35:13.327Z,9.50
2019-02-18T17:37:41.941Z,9.50
2019-02-18T17:40:12.681Z,9.40
2019-02-18T17:42:41.595Z,9.30
2019-02-18T17:45:12.127Z,9.30
2019-02-18T17:47:40.547Z,9.20
2019-02-18T17:50:12.239Z,9.10
2019-02-18T17:52:40.754Z,9.10
2019-02-18T17:55:11.942Z,8.90
2019-02-18T17:57:42.674Z,8.90
2019-02-18T18:00:17.531Z,8.80
2019-02-18T18:02:46.430Z,8.60
2019-02-18T18:05:16.177Z,8.60
2019-02-18T18:07:46.208Z,8.60
2019-02-18T18:10:14.728Z,8.50
2019-02-18T18:12:43.515Z,8.50
2019-02-18T18:15:12.243Z,8.40
2019-02-18T18:17:41.501Z,8.30
2019-02-18T18:20:10.727Z,8.20
2019-02-18T18:22:39.476Z,8.20
2019-02-18T18:25:09.167Z,8.20
2019-02-18T18:27:37.809Z,8.10
2019-02-18T18:30:08.922Z,8.00
2019-02-18T18:32:41.178Z,8.10
2019-02-18T18:35:10.309Z,8.10
2019-02-18T18:37:38.996Z,8.00
2019-02-18T18:40:10.405Z,7.90
2019-02-18T18:42:40.771Z,7.90
2019-02-18T18:45:11.429Z,7.80
2019-02-18T18:47:41.160Z,7.80
2019-02-18T18:50:13.663Z,7.70
2019-02-18T18:52:42.481Z,7.70
2019-02-18T18:55:11.069Z,7.60
2019-02-18T18:57:39.491Z,7.50
2019-02-18T19:00:22.335Z,7.40
2019-02-18T19:02:56.114Z,7.40
2019-02-18T19:05:24.859Z,7.40
2019-02-18T19:07:53.491Z,7.40
2019-02-18T19:10:22.310Z,7.40
2019-02-18T19:12:50.804Z,7.30
2019-02-18T19:15:20.085Z,7.30
2019-02-18T19:17:48.808Z,7.30
2019-02-18T19:20:17.493Z,7.30
2019-02-18T19:22:46.136Z,7.30
2019-02-18T19:25:15.030Z,7.20
2019-02-18T19:27:43.434Z,7.20
2019-02-18T19:30:15.552Z,7.20
2019-02-18T19:32:43.949Z,7.10
2019-02-18T19:35:12.795Z,7.10
2019-02-18T19:37:41.295Z,7.00
2019-02-18T19:40:11.825Z,7.00
2019-02-18T19:42:40.998Z,7.00
2019-02-18T19:45:15.313Z,7.00
2019-02-18T19:47:44.545Z,7.00
2019-02-18T19:50:13.366Z,6.90
2019-02-18T19:52:43.962Z,6.90
2019-02-18T19:55:14.427Z,6.80
2019-02-18T19:57:42.949Z,6.70
2019-02-18T20:00:15.560Z,6.70
2019-02-18T20:02:44.334Z,6.70
2019-02-18T20:05:13.186Z,6.70
2019-02-18T20:07:41.690Z,6.60
2019-02-18T20:10:12.755Z,6.60
2019-02-18T20:12:41.254Z,6.50
2019-02-18T20:15:10.745Z,6.50
2019-02-18T20:17:39.534Z,6.40
2019-02-18T20:20:09.568Z,6.40
2019-02-18T20:22:38.378Z,6.50
2019-02-18T20:25:08.609Z,6.40
2019-02-18T20:27:37.171Z,6.40
2019-02-18T20:30:06.802Z,6.30
2019-02-18T20:32:36.572Z,6.20
2019-02-18T20:35:05.629Z,6.20
2019-02-18T20:37:34.088Z,6.20
2019-02-18T20:40:03.137Z,6.10
2019-02-18T20:42:32.025Z,6.00
2019-02-18T20:45:02.759Z,6.00
2019-02-18T20:47:31.549Z,5.90
2019-02-18T20:50:01.794Z,5.90
2019-02-18T20:52:30.695Z,6.00
2019-02-18T20:55:00.892Z,5.90
2019-02-18T20:57:29.317Z,5.90
2019-02-18T20:59:57.740Z,5.90
2019-02-18T21:02:26.389Z,5.90
2019-02-18T21:04:55.182Z,5.80
2019-02-18T21:07:23.606Z,5.70
2019-02-18T21:09:52.187Z,5.70
2019-02-18T21:12:21.343Z,5.70
2019-02-18T21:14:50.363Z,5.70
2019-02-18T21:17:20.590Z,5.60
2019-02-18T21:19:48.971Z,5.50
2019-02-18T21:22:17.444Z,5.50
2019-02-18T21:24:45.847Z,5.60
2019-02-18T21:27:14.287Z,5.60
2019-02-18T21:29:43.313Z,5.50
2019-02-18T21:32:12.520Z,5.40
2019-02-18T21:34:41.022Z,5.40
2019-02-18T21:37:10.041Z,5.30
2019-02-18T21:39:38.549Z,5.30
2019-02-18T21:42:07.051Z,5.30
2019-02-18T21:44:37.318Z,5.40
2019-02-18T21:47:05.864Z,5.30
2019-02-18T21:49:34.855Z,5.40
2019-02-18T21:52:03.351Z,5.40
2019-02-18T21:54:33.560Z,5.30
2019-02-18T21:57:01.951Z,5.20
2019-02-18T21:59:31.456Z,5.20
2019-02-18T22:02:01.124Z,5.10
2019-02-18T22:04:29.646Z,5.20
2019-02-18T22:06:58.034Z,5.20
2019-02-18T22:09:26.536Z,5.20
2019-02-18T22:11:55.130Z,5.20
2019-02-18T22:14:23.512Z,5.20
2019-02-18T22:16:52.063Z,5.20
2019-02-18T22:19:20.451Z,5.20
2019-02-18T22:21:49.002Z,5.20
2019-02-18T22:24:17.389Z,5.10
2019-02-18T22:26:45.870Z,5.00
2019-02-18T22:29:14.356Z,5.00
2019-02-18T22:31:43.012Z,5.00
2019-02-18T22:34:12.219Z,4.90
2019-02-18T22:36:40.794Z,5.00
2019-02-18T22:39:09.203Z,4.90
2019-02-18T22:41:38.057Z,5.00
2019-02-18T22:44:06.542Z,4.90
2019-02-18T22:46:34.949Z,4.90
2019-02-18T22:49:03.832Z,4.80
2019-02-18T22:51:32.298Z,4.80
2019-02-18T22:54:01.008Z,4.80
2019-02-18T22:56:29.992Z,4.90
2019-02-18T22:58:58.395Z,4.80
2019-02-18T23:01:27.114Z,4.80
2019-02-18T23:03:55.602Z,4.70
2019-02-18T23:06:24.387Z,4.70
2019-02-18T23:08:52.869Z,4.70
2019-02-18T23:11:21.400Z,4.60
2019-02-18T23:13:49.788Z,4.60
2019-02-18T23:16:18.175Z,4.50
2019-02-18T23:18:46.571Z,4.60
2019-02-18T23:21:14.989Z,4.70
2019-02-18T23:23:45.003Z,4.70
2019-02-18T23:26:13.499Z,4.70
2019-02-18T23:28:43.795Z,4.60
2019-02-18T23:31:12.270Z,4.50
2019-02-18T23:33:40.768Z,4.50
2019-02-18T23:36:09.191Z,4.50
2019-02-18T23:38:37.577Z,4.50
2019-02-18T23:41:07.237Z,4.50
2019-02-18T23:43:35.631Z,4.50
2019-02-18T23:46:04.020Z,4.40
2019-02-18T23:48:32.532Z,4.40
2019-02-18T23:51:02.046Z,4.40
2019-02-18T23:53:30.435Z,4.40
2019-02-18T23:55:58.826Z,4.40
2019-02-18T23:58:27.360Z,4.40
